createdAt,value
2023-03-19T00:00:54.054Z,101359.00
2023-03-19T00:03:22.295Z,101342.78
2023-03-19T00:05:53.860Z,101334.31
2023-03-19T00:08:21.547Z,101342.50
2023-03-19T00:10:49.253Z,101351.97
2023-03-19T00:13:16.408Z,101345.06
2023-03-19T00:16:03.946Z,101348.31
2023-03-19T00:18:31.544Z,101352.72
2023-03-19T00:20:59.042Z,101353.63
2023-03-19T00:23:27.129Z,101349.34
2023-03-19T00:25:55.573Z,101351.09
2023-03-19T00:28:23.132Z,101351.34
2023-03-19T00:30:50.593Z,101359.38
2023-03-19T00:33:18.315Z,101350.94
2023-03-19T00:35:46.365Z,101350.13
2023-03-19T00:38:14.094Z,101350.13
2023-03-19T00:40:43.140Z,101344.31
2023-03-19T00:43:11.006Z,101348.78
2023-03-19T00:45:39.062Z,101349.72
2023-03-19T00:48:07.984Z,101341.53
2023-03-19T00:50:35.998Z,101356.28
2023-03-19T00:53:04.111Z,101353.72
2023-03-19T00:55:32.667Z,101346.78
2023-03-19T00:58:00.882Z,101340.66
2023-03-19T01:00:28.749Z,101347.81
2023-03-19T01:02:56.730Z,101342.69
2023-03-19T01:05:24.954Z,101326.22
2023-03-19T01:07:52.701Z,101309.84
2023-03-19T01:10:42.968Z,101298.22
2023-03-19T01:13:11.028Z,101308.94
2023-03-19T01:15:42.599Z,101309.09
2023-03-19T01:18:10.739Z,101305.25
2023-03-19T01:20:39.335Z,101304.56
2023-03-19T01:23:07.905Z,101317.66
2023-03-19T01:25:36.424Z,101313.19
2023-03-19T01:28:04.983Z,101313.03
2023-03-19T01:30:32.898Z,101317.50
2023-03-19T01:33:00.663Z,101315.91
2023-03-19T01:35:29.056Z,101306.44
2023-03-19T01:37:56.880Z,101296.31
2023-03-19T01:40:24.639Z,101295.50
2023-03-19T01:43:16.157Z,101300.38
2023-03-19T01:45:43.638Z,101289.84
2023-03-19T01:48:37.735Z,101289.84
2023-03-19T01:51:07.547Z,101296.84
2023-03-19T01:53:38.803Z,101301.31
2023-03-19T01:56:36.609Z,101304.00
2023-03-19T01:59:07.654Z,101299.97
2023-03-19T02:01:35.912Z,101289.16
2023-03-19T02:04:03.832Z,101297.00
2023-03-19T02:06:31.148Z,101301.56
2023-03-19T02:08:58.842Z,101296.59
2023-03-19T02:11:27.298Z,101299.25
2023-03-19T02:13:54.437Z,101290.59
2023-03-19T02:16:21.775Z,101295.38
2023-03-19T02:18:49.594Z,101284.56
2023-03-19T02:21:17.713Z,101284.97
2023-03-19T02:24:17.106Z,101287.56
2023-03-19T02:26:43.764Z,101284.06
2023-03-19T02:29:11.911Z,101289.16
2023-03-19T02:31:40.253Z,101288.03
2023-03-19T02:34:27.418Z,101296.84
2023-03-19T02:37:19.628Z,101297.56
2023-03-19T02:39:49.573Z,101294.78
2023-03-19T02:42:16.945Z,101297.88
2023-03-19T02:44:44.810Z,101308.00
2023-03-19T02:47:12.367Z,101306.22
2023-03-19T02:49:39.912Z,101303.66
2023-03-19T02:52:09.615Z,101306.84
2023-03-19T02:54:37.283Z,101302.97
2023-03-19T02:57:06.929Z,101305.38
2023-03-19T02:59:34.594Z,101311.44
2023-03-19T03:02:02.248Z,101304.28
2023-03-19T03:04:30.517Z,101308.47
2023-03-19T03:06:58.397Z,101309.91
2023-03-19T03:09:27.314Z,101312.34
2023-03-19T03:11:55.047Z,101310.75
2023-03-19T03:14:23.018Z,101301.44
2023-03-19T03:16:51.532Z,101302.31
2023-03-19T03:19:18.735Z,101297.31
2023-03-19T03:21:46.734Z,101300.97
2023-03-19T03:24:15.293Z,101307.81
2023-03-19T03:26:46.051Z,101303.47
2023-03-19T03:29:13.970Z,101309.56
2023-03-19T03:31:41.704Z,101314.03
2023-03-19T03:34:10.230Z,101313.44
2023-03-19T03:36:40.900Z,101313.66
2023-03-19T03:39:11.895Z,101319.88
2023-03-19T03:41:40.779Z,101328.63
2023-03-19T03:44:08.581Z,101329.63
2023-03-19T03:46:36.868Z,101331.47
2023-03-19T03:49:05.121Z,101325.41
2023-03-19T03:51:32.945Z,101320.31
2023-03-19T03:54:01.058Z,101322.94
2023-03-19T03:56:28.817Z,101326.53
2023-03-19T03:58:56.998Z,101334.25
2023-03-19T04:01:24.652Z,101341.94
2023-03-19T04:03:52.775Z,101342.03
2023-03-19T04:06:22.784Z,101344.69
2023-03-19T04:08:51.231Z,101346.56
2023-03-19T04:11:19.356Z,101359.53
2023-03-19T04:13:47.532Z,101353.16
2023-03-19T04:16:15.851Z,101351.72
2023-03-19T04:18:43.924Z,101349.19
2023-03-19T04:21:11.907Z,101351.72
2023-03-19T04:23:39.942Z,101347.38
2023-03-19T04:26:10.710Z,101351.72
2023-03-19T04:28:38.818Z,101346.69
2023-03-19T04:31:08.210Z,101355.06
2023-03-19T04:33:36.318Z,101355.06
2023-03-19T04:36:04.962Z,101354.03
2023-03-19T04:38:32.946Z,101360.00
2023-03-19T04:41:01.732Z,101361.09
2023-03-19T04:43:30.402Z,101375.63
2023-03-19T04:45:59.090Z,101379.28
2023-03-19T04:48:27.632Z,101378.56
2023-03-19T04:50:57.225Z,101380.25
2023-03-19T04:53:25.021Z,101373.34
2023-03-19T04:55:53.274Z,101377.44
2023-03-19T04:58:21.509Z,101376.47
2023-03-19T05:00:49.299Z,101375.63
2023-03-19T05:03:17.174Z,101388.00
2023-03-19T05:05:45.328Z,101392.41
2023-03-19T05:08:13.824Z,101387.31
2023-03-19T05:10:42.050Z,101383.75
2023-03-19T05:13:09.680Z,101387.00
2023-03-19T05:15:37.966Z,101385.69
2023-03-19T05:18:06.256Z,101395.69
2023-03-19T05:20:34.782Z,101400.22
2023-03-19T05:23:05.540Z,101400.25
2023-03-19T05:25:35.315Z,101409.00
2023-03-19T05:28:04.224Z,101404.03
2023-03-19T05:30:32.224Z,101406.72
2023-03-19T05:32:59.917Z,101404.97
2023-03-19T05:35:28.041Z,101415.25
2023-03-19T05:37:59.351Z,101411.72
2023-03-19T05:40:30.352Z,101413.25
2023-03-19T05:42:57.910Z,101422.00
2023-03-19T05:45:25.759Z,101418.47
2023-03-19T05:47:53.820Z,101417.44
2023-03-19T05:50:26.789Z,101426.75
2023-03-19T05:52:54.961Z,101420.75
2023-03-19T05:55:24.502Z,101418.00
2023-03-19T05:57:52.531Z,101410.97
2023-03-19T06:00:22.656Z,101408.41
2023-03-19T06:02:51.479Z,101411.63
2023-03-19T06:05:42.475Z,101415.16
2023-03-19T06:08:13.107Z,101419.34
2023-03-19T06:10:40.950Z,101427.13
2023-03-19T06:13:08.963Z,101426.28
2023-03-19T06:15:36.870Z,101428.94
2023-03-19T06:18:08.482Z,101438.47
2023-03-19T06:20:36.502Z,101430.94
2023-03-19T06:23:10.196Z,101437.81
2023-03-19T06:25:45.481Z,101444.19
2023-03-19T06:28:14.928Z,101438.34
2023-03-19T06:30:42.911Z,101442.88
2023-03-19T06:33:16.517Z,101437.25
2023-03-19T06:35:44.442Z,101432.31
2023-03-19T06:38:13.355Z,101431.13
2023-03-19T06:40:41.205Z,101441.19
2023-03-19T06:43:09.446Z,101447.72
2023-03-19T06:45:37.482Z,101450.56
2023-03-19T06:48:05.947Z,101449.97
2023-03-19T06:50:33.824Z,101458.03
2023-03-19T06:53:02.496Z,101459.94
2023-03-19T06:55:31.217Z,101463.47
2023-03-19T06:57:59.491Z,101461.97
2023-03-19T07:00:27.957Z,101471.53
2023-03-19T07:02:55.900Z,101472.50
2023-03-19T07:05:23.896Z,101469.00
2023-03-19T07:07:52.396Z,101474.28
2023-03-19T07:10:21.541Z,101465.75
2023-03-19T07:12:49.765Z,101474.56
2023-03-19T07:15:17.829Z,101470.63
2023-03-19T07:17:47.208Z,101469.22
2023-03-19T07:20:15.739Z,101463.59
2023-03-19T07:22:43.393Z,101467.50
2023-03-19T07:25:11.993Z,101462.63
2023-03-19T07:27:39.489Z,101472.41
2023-03-19T07:30:10.074Z,101470.06
2023-03-19T07:32:38.930Z,101481.41
2023-03-19T07:35:10.403Z,101468.94
2023-03-19T07:37:38.312Z,101481.25
2023-03-19T07:40:07.884Z,101491.00
2023-03-19T07:42:36.579Z,101491.31
2023-03-19T07:45:06.018Z,101490.03
2023-03-19T07:47:34.169Z,101494.59
2023-03-19T07:50:01.787Z,101490.56
2023-03-19T07:52:29.891Z,101493.34
2023-03-19T07:55:00.657Z,101500.50
2023-03-19T07:57:28.367Z,101493.06
2023-03-19T07:59:56.583Z,101500.25
2023-03-19T08:02:24.820Z,101499.56
2023-03-19T08:04:53.228Z,101500.47
2023-03-19T08:07:21.928Z,101498.06
2023-03-19T08:09:49.651Z,101495.63
2023-03-19T08:12:17.615Z,101497.78
2023-03-19T08:14:45.359Z,101498.94
2023-03-19T08:17:13.757Z,101490.56
2023-03-19T08:19:41.894Z,101485.75
2023-03-19T08:22:13.410Z,101495.53
2023-03-19T08:24:41.099Z,101507.66
2023-03-19T08:27:09.418Z,101506.00
2023-03-19T08:29:37.461Z,101500.25
2023-03-19T08:32:05.690Z,101500.59
2023-03-19T08:34:33.482Z,101500.59
2023-03-19T08:37:01.507Z,101493.25
2023-03-19T08:39:29.386Z,101506.47
2023-03-19T08:41:57.638Z,101505.56
2023-03-19T08:44:25.296Z,101507.41
2023-03-19T08:46:53.682Z,101506.81
2023-03-19T08:49:21.543Z,101506.97
2023-03-19T08:51:49.852Z,101505.44
2023-03-19T08:54:17.801Z,101509.25
2023-03-19T08:56:45.719Z,101516.41
2023-03-19T08:59:13.674Z,101519.31
2023-03-19T09:01:41.827Z,101525.75
2023-03-19T09:04:09.916Z,101517.28
2023-03-19T09:06:37.942Z,101521.06
2023-03-19T09:09:06.515Z,101523.50
2023-03-19T09:11:34.580Z,101518.47
2023-03-19T09:14:02.664Z,101522.25
2023-03-19T09:16:31.454Z,101521.03
2023-03-19T09:18:59.598Z,101526.34
2023-03-19T09:21:27.727Z,101525.66
2023-03-19T09:23:55.555Z,101526.59
2023-03-19T09:26:26.236Z,101530.50
2023-03-19T09:28:53.861Z,101532.34
2023-03-19T09:31:21.643Z,101529.03
2023-03-19T09:33:49.837Z,101535.38
2023-03-19T09:36:17.928Z,101531.97
2023-03-19T09:38:46.552Z,101535.38
2023-03-19T09:41:20.876Z,101539.97
2023-03-19T09:43:58.914Z,101532.38
2023-03-19T09:46:55.260Z,101535.97
2023-03-19T09:49:23.565Z,101537.78
2023-03-19T09:51:56.145Z,101533.66
2023-03-19T09:54:28.436Z,101537.41
2023-03-19T09:56:56.067Z,101534.38
2023-03-19T09:59:24.159Z,101532.13
2023-03-19T10:02:11.035Z,101530.13
2023-03-19T10:05:11.702Z,101537.78
2023-03-19T10:08:13.575Z,101525.13
2023-03-19T10:10:49.451Z,101532.28
2023-03-19T10:13:47.338Z,101525.91
2023-03-19T10:16:19.172Z,101519.31
2023-03-19T10:18:52.150Z,101519.75
2023-03-19T10:21:37.403Z,101527.19
2023-03-19T10:24:23.086Z,101526.13
2023-03-19T10:26:52.833Z,101515.31
2023-03-19T10:29:20.927Z,101519.63
2023-03-19T10:31:50.317Z,101508.34
2023-03-19T10:34:32.815Z,101506.75
2023-03-19T10:37:01.704Z,101501.47
2023-03-19T10:39:29.367Z,101497.19
2023-03-19T10:42:10.437Z,101499.16
2023-03-19T10:44:48.815Z,101502.59
2023-03-19T10:47:18.204Z,101499.16
2023-03-19T10:49:45.888Z,101493.31
2023-03-19T10:52:22.907Z,101498.09
2023-03-19T10:54:53.309Z,101493.09
2023-03-19T10:57:28.445Z,101497.59
2023-03-19T10:59:56.557Z,101495.34
2023-03-19T11:02:31.180Z,101495.25
2023-03-19T11:05:22.333Z,101495.31
2023-03-19T11:08:10.527Z,101494.03
2023-03-19T11:10:38.728Z,101483.56
2023-03-19T11:13:07.626Z,101478.97
2023-03-19T11:15:38.805Z,101471.78
2023-03-19T11:18:24.340Z,101473.19
2023-03-19T11:21:02.426Z,101472.31
2023-03-19T11:23:30.475Z,101472.31
2023-03-19T11:26:21.724Z,101465.53
2023-03-19T11:28:52.612Z,101462.09
2023-03-19T11:31:20.965Z,101459.28
2023-03-19T11:34:03.481Z,101453.19
2023-03-19T11:36:50.195Z,101447.94
2023-03-19T11:39:37.305Z,101438.47
2023-03-19T11:42:04.136Z,101432.41
2023-03-19T11:44:40.294Z,101430.72
2023-03-19T11:47:27.127Z,101433.53
2023-03-19T11:49:54.377Z,101431.06
2023-03-19T11:52:53.360Z,101423.34
2023-03-19T11:55:27.959Z,101419.06
2023-03-19T11:58:19.202Z,101405.13
2023-03-19T12:00:57.239Z,101405.97
2023-03-19T12:03:28.744Z,101396.41
2023-03-19T12:06:04.563Z,101391.16
2023-03-19T12:08:43.763Z,101384.06
2023-03-19T12:11:43.787Z,101373.63
2023-03-19T12:14:35.852Z,101391.16
2023-03-19T12:17:17.644Z,101394.63
2023-03-19T12:20:05.627Z,101396.22
2023-03-19T12:22:53.778Z,101395.19
2023-03-19T12:25:39.293Z,101392.47
2023-03-19T12:28:21.128Z,101391.63
2023-03-19T12:30:57.896Z,101395.94
2023-03-19T12:33:43.710Z,101392.53
2023-03-19T12:36:14.433Z,101388.16
2023-03-19T12:38:48.535Z,101390.78
2023-03-19T12:41:20.600Z,101375.16
2023-03-19T12:44:02.431Z,101376.13
2023-03-19T12:46:32.989Z,101377.91
2023-03-19T12:49:11.710Z,101366.63
2023-03-19T12:51:41.901Z,101364.09
2023-03-19T12:54:12.988Z,101362.38
2023-03-19T12:56:40.727Z,101362.38
2023-03-19T12:59:28.959Z,101357.81
2023-03-19T13:02:25.965Z,101353.13
2023-03-19T13:05:08.400Z,101358.31
2023-03-19T13:08:19.032Z,101354.06
2023-03-19T13:10:46.654Z,101349.00
2023-03-19T13:13:32.285Z,101358.78
2023-03-19T13:16:24.176Z,101344.81
2023-03-19T13:18:58.396Z,101344.81
2023-03-19T13:21:33.094Z,101335.09
2023-03-19T13:24:13.297Z,101335.06
2023-03-19T13:26:46.129Z,101329.78
2023-03-19T13:29:23.806Z,101337.75
2023-03-19T13:31:52.063Z,101335.22
2023-03-19T13:34:38.604Z,101335.28
2023-03-19T13:37:11.221Z,101335.38
2023-03-19T13:39:37.943Z,101334.50
2023-03-19T13:42:42.909Z,101333.63
2023-03-19T13:45:29.876Z,101338.00
2023-03-19T13:47:58.579Z,101332.72
2023-03-19T13:50:28.353Z,101331.72
2023-03-19T13:53:34.701Z,101330.81
2023-03-19T13:56:05.684Z,101332.63
2023-03-19T13:59:13.794Z,101331.88
2023-03-19T14:01:45.735Z,101325.81
2023-03-19T14:04:23.615Z,101323.16
2023-03-19T14:07:09.799Z,101319.56
2023-03-19T14:09:49.524Z,101321.25
2023-03-19T14:12:16.431Z,101311.63
2023-03-19T14:14:49.542Z,101309.78
2023-03-19T14:17:36.165Z,101314.97
2023-03-19T14:20:12.733Z,101313.94
2023-03-19T14:22:56.461Z,101312.88
2023-03-19T14:25:25.197Z,101323.25
2023-03-19T14:27:55.025Z,101316.28
2023-03-19T14:31:05.507Z,101313.59
2023-03-19T14:33:45.989Z,101309.19
2023-03-19T14:36:15.126Z,101306.47
2023-03-19T14:38:53.826Z,101302.09
2023-03-19T14:41:23.248Z,101299.41
2023-03-19T14:44:14.190Z,101288.09
2023-03-19T14:47:08.761Z,101288.81
2023-03-19T14:50:12.419Z,101301.75
2023-03-19T14:53:21.588Z,101297.38
2023-03-19T14:55:53.091Z,101297.25
2023-03-19T14:58:21.278Z,101295.41
2023-03-19T15:00:52.201Z,101303.88
2023-03-19T15:03:37.349Z,101299.28
2023-03-19T15:06:06.095Z,101291.50
2023-03-19T15:08:33.808Z,101296.69
2023-03-19T15:11:03.479Z,101300.97
2023-03-19T15:14:00.914Z,101300.97
2023-03-19T15:16:43.061Z,101298.38
2023-03-19T15:19:10.654Z,101294.84
2023-03-19T15:21:42.013Z,101304.25
2023-03-19T15:24:14.648Z,101307.72
2023-03-19T15:26:42.808Z,101305.97
2023-03-19T15:29:12.435Z,101303.38
2023-03-19T15:31:57.646Z,101295.50
2023-03-19T15:34:31.322Z,101298.19
2023-03-19T15:37:02.638Z,101299.88
2023-03-19T15:39:31.505Z,101300.69
2023-03-19T15:42:00.914Z,101303.25
2023-03-19T15:44:33.961Z,101307.56
2023-03-19T15:47:01.925Z,101304.88
2023-03-19T15:49:30.732Z,101299.59
2023-03-19T15:52:03.576Z,101300.41
2023-03-19T15:54:31.263Z,101308.22
2023-03-19T15:56:58.893Z,101308.13
2023-03-19T15:59:30.077Z,101309.03
2023-03-19T16:01:59.761Z,101309.78
2023-03-19T16:05:03.564Z,101304.53
2023-03-19T16:07:30.478Z,101306.22
2023-03-19T16:10:16.576Z,101306.19
2023-03-19T16:12:51.089Z,101306.19
2023-03-19T16:15:29.058Z,101310.50
2023-03-19T16:17:56.973Z,101303.59
2023-03-19T16:20:25.296Z,101301.81
2023-03-19T16:22:58.661Z,101306.94
2023-03-19T16:25:28.661Z,101313.81
2023-03-19T16:27:56.011Z,101313.72
2023-03-19T16:30:25.892Z,101320.50
2023-03-19T16:33:05.435Z,101319.50
2023-03-19T16:35:33.281Z,101327.22
2023-03-19T16:38:19.278Z,101335.84
2023-03-19T16:40:47.586Z,101337.50
2023-03-19T16:43:23.117Z,101342.53
2023-03-19T16:46:03.994Z,101344.16
2023-03-19T16:48:38.195Z,101345.81
2023-03-19T16:51:06.781Z,101350.97
2023-03-19T16:53:34.651Z,101354.44
2023-03-19T16:56:03.440Z,101352.66
2023-03-19T16:58:33.091Z,101358.69
2023-03-19T17:01:00.885Z,101363.75
2023-03-19T17:03:30.361Z,101363.75
2023-03-19T17:05:57.542Z,101372.44
2023-03-19T17:08:26.480Z,101369.84
2023-03-19T17:10:57.145Z,101374.19
2023-03-19T17:13:28.450Z,101370.63
2023-03-19T17:15:57.670Z,101379.19
2023-03-19T17:18:48.512Z,101376.53
2023-03-19T17:21:22.280Z,101373.91
2023-03-19T17:23:49.968Z,101372.19
2023-03-19T17:26:22.720Z,101377.41
2023-03-19T17:28:50.772Z,101364.16
2023-03-19T17:31:23.071Z,101378.88
2023-03-19T17:33:49.890Z,101389.25
2023-03-19T17:36:17.068Z,101388.31
2023-03-19T17:38:44.739Z,101382.25
2023-03-19T17:41:17.206Z,101388.19
2023-03-19T17:43:45.494Z,101398.50
2023-03-19T17:46:33.249Z,101407.03
2023-03-19T17:49:01.339Z,101402.34
2023-03-19T17:51:29.039Z,101406.34
2023-03-19T17:53:57.093Z,101406.13
2023-03-19T17:56:26.042Z,101398.13
2023-03-19T17:58:53.905Z,101402.97
2023-03-19T18:01:23.617Z,101405.25
2023-03-19T18:03:51.670Z,101408.34
2023-03-19T18:06:40.538Z,101409.88
2023-03-19T18:09:10.147Z,101412.13
2023-03-19T18:11:38.606Z,101412.72
2023-03-19T18:14:06.266Z,101411.50
2023-03-19T18:16:33.986Z,101419.84
2023-03-19T18:19:02.536Z,101409.44
2023-03-19T18:21:30.172Z,101410.19
2023-03-19T18:23:57.656Z,101417.84
2023-03-19T18:26:26.163Z,101420.34
2023-03-19T18:28:54.292Z,101424.69
2023-03-19T18:31:25.797Z,101423.63
2023-03-19T18:34:15.900Z,101417.59
2023-03-19T18:36:43.092Z,101424.44
2023-03-19T18:39:14.712Z,101427.63
2023-03-19T18:41:42.514Z,101431.88
2023-03-19T18:44:10.289Z,101427.44
2023-03-19T18:46:38.900Z,101427.63
2023-03-19T18:49:23.106Z,101434.69
2023-03-19T18:52:01.555Z,101435.59
2023-03-19T18:54:31.266Z,101444.38
2023-03-19T18:56:59.756Z,101439.16
2023-03-19T18:59:28.629Z,101449.56
2023-03-19T19:01:59.452Z,101450.38
2023-03-19T19:04:29.678Z,101447.88
2023-03-19T19:06:58.431Z,101444.28
2023-03-19T19:09:26.709Z,101451.03
2023-03-19T19:11:54.771Z,101447.59
2023-03-19T19:14:22.923Z,101444.16
2023-03-19T19:16:50.953Z,101446.81
2023-03-19T19:19:22.656Z,101452.03
2023-03-19T19:21:53.793Z,101458.13
2023-03-19T19:24:22.171Z,101459.47
2023-03-19T19:26:51.717Z,101461.19
2023-03-19T19:29:29.474Z,101459.41
2023-03-19T19:31:57.393Z,101466.97
2023-03-19T19:34:25.488Z,101464.25
2023-03-19T19:36:55.608Z,101463.41
2023-03-19T19:39:23.878Z,101466.78
2023-03-19T19:41:56.578Z,101456.44
2023-03-19T19:44:24.550Z,101452.94
2023-03-19T19:46:54.581Z,101456.34
2023-03-19T19:49:22.506Z,101456.34
2023-03-19T19:51:51.139Z,101453.72
2023-03-19T19:54:18.825Z,101452.06
2023-03-19T19:56:47.000Z,101441.81
2023-03-19T19:59:14.990Z,101449.50
2023-03-19T20:01:43.747Z,101450.41
2023-03-19T20:04:35.057Z,101458.94
2023-03-19T20:07:03.284Z,101460.56
2023-03-19T20:09:31.450Z,101461.06
2023-03-19T20:11:59.350Z,101462.72
2023-03-19T20:14:27.091Z,101463.44
2023-03-19T20:16:58.400Z,101461.00
2023-03-19T20:19:25.873Z,101471.25
2023-03-19T20:21:54.440Z,101466.03
2023-03-19T20:24:22.618Z,101470.91
2023-03-19T20:26:50.526Z,101463.81
2023-03-19T20:29:18.714Z,101468.06
2023-03-19T20:31:46.813Z,101478.41
2023-03-19T20:34:22.438Z,101475.06
2023-03-19T20:36:56.490Z,101475.78
2023-03-19T20:39:24.300Z,101475.78
2023-03-19T20:41:51.894Z,101475.78
2023-03-19T20:44:22.430Z,101474.75
2023-03-19T20:46:49.678Z,101471.34
2023-03-19T20:49:17.444Z,101474.56
2023-03-19T20:51:46.525Z,101471.88
2023-03-19T20:54:14.633Z,101471.75
2023-03-19T20:56:41.994Z,101471.56
2023-03-19T20:59:11.729Z,101467.25
2023-03-19T21:01:40.171Z,101462.03
2023-03-19T21:04:12.176Z,101456.38
2023-03-19T21:06:52.545Z,101457.19
2023-03-19T21:09:21.636Z,101460.69
2023-03-19T21:11:49.312Z,101464.91
2023-03-19T21:14:16.952Z,101469.84
2023-03-19T21:16:45.539Z,101467.16
2023-03-19T21:19:13.460Z,101469.75
2023-03-19T21:21:42.880Z,101476.66
2023-03-19T21:24:20.090Z,101475.69
2023-03-19T21:26:54.805Z,101474.03
2023-03-19T21:29:31.260Z,101472.38
2023-03-19T21:31:59.606Z,101469.59
2023-03-19T21:34:28.539Z,101470.63
2023-03-19T21:36:56.421Z,101467.16
2023-03-19T21:39:23.933Z,101465.47
2023-03-19T21:41:51.116Z,101470.81
2023-03-19T21:44:19.990Z,101469.09
2023-03-19T21:46:47.820Z,101467.25
2023-03-19T21:49:16.400Z,101468.22
2023-03-19T21:51:44.313Z,101464.00
2023-03-19T21:54:12.436Z,101469.28
2023-03-19T21:56:40.903Z,101477.81
2023-03-19T21:59:33.796Z,101468.44
2023-03-19T22:02:01.908Z,101466.59
2023-03-19T22:04:29.834Z,101459.78
2023-03-19T22:06:57.585Z,101455.44
2023-03-19T22:09:25.431Z,101459.78
2023-03-19T22:11:53.463Z,101456.47
2023-03-19T22:14:28.236Z,101460.50
2023-03-19T22:16:56.264Z,101454.53
2023-03-19T22:19:23.929Z,101456.53
2023-03-19T22:21:52.237Z,101452.22
2023-03-19T22:24:20.189Z,101454.66
2023-03-19T22:26:49.111Z,101452.81
2023-03-19T22:29:23.719Z,101452.00
2023-03-19T22:31:51.781Z,101451.22
2023-03-19T22:34:21.555Z,101445.19
2023-03-19T22:36:49.702Z,101445.94
2023-03-19T22:39:16.951Z,101442.41
2023-03-19T22:41:47.962Z,101443.16
2023-03-19T22:44:28.393Z,101435.34
2023-03-19T22:46:56.535Z,101434.25
2023-03-19T22:49:24.853Z,101430.75
2023-03-19T22:51:52.968Z,101423.78
2023-03-19T22:54:21.243Z,101421.28
2023-03-19T22:56:50.389Z,101422.09
2023-03-19T22:59:18.940Z,101413.31
2023-03-19T23:01:46.800Z,101412.44
2023-03-19T23:04:22.798Z,101412.19
2023-03-19T23:06:50.814Z,101424.00
2023-03-19T23:09:20.637Z,101423.88
2023-03-19T23:11:49.463Z,101421.19
2023-03-19T23:14:28.914Z,101421.19
2023-03-19T23:19:39.157Z,101430.00
2023-03-19T23:22:06.792Z,101423.19
2023-03-19T23:24:34.925Z,101424.13
2023-03-19T23:27:03.213Z,101427.50
2023-03-19T23:29:33.123Z,101423.28
2023-03-19T23:32:00.977Z,101421.75
2023-03-19T23:34:28.846Z,101413.06
2023-03-19T23:36:56.858Z,101409.56
2023-03-19T23:39:24.053Z,101419.81
2023-03-19T23:41:53.582Z,101410.53
2023-03-19T23:44:21.249Z,101410.59
2023-03-19T23:46:49.385Z,101411.75
2023-03-19T23:49:29.017Z,101408.38
2023-03-19T23:51:57.524Z,101410.00
2023-03-19T23:54:30.202Z,101410.72
2023-03-19T23:56:59.653Z,101418.63
2023-03-19T23:59:27.602Z,101422.19
